Time;durP1;ratioP1;P1;durP2;ratioP2;P2;SDS_P1;SDS_P2;PMS_P1;PMS_P2;Temp;Humidity;BMP_temperature;BMP_pressure;BME280_temperature;BME280_humidity;BME280_pressure;Samples;Min_cycle;Max_cycle;Signal;HPM_P1;HPM_P2
2022/10/20 00:01:56;;;;;;;11.30;6.10;;;9.90;99.90;;;;;;5059883;28;20465;-83
2022/10/20 00:04:23;;;;;;;7.23;5.00;;;9.90;99.90;;;;;;5060100;28;21212;-82
2022/10/20 00:06:49;;;;;;;7.20;5.13;;;9.90;99.90;;;;;;5059075;28;20461;-83
2022/10/20 00:09:16;;;;;;;6.37;5.77;;;9.90;99.90;;;;;;5058572;28;20454;-82
2022/10/20 00:11:44;;;;;;;5.40;4.63;;;9.90;99.90;;;;;;5059537;28;20455;-83
2022/10/20 00:14:13;;;;;;;7.70;5.93;;;9.90;99.90;;;;;;5059465;28;20455;-82
2022/10/20 00:16:40;;;;;;;6.43;5.13;;;9.90;99.90;;;;;;5059288;28;20463;-82
2022/10/20 00:19:07;;;;;;;6.43;4.83;;;9.90;99.90;;;;;;5058926;28;20450;-82
2022/10/20 00:21:34;;;;;;;5.97;5.10;;;9.90;99.90;;;;;;5058390;28;20463;-83
2022/10/20 00:24:03;;;;;;;6.43;5.40;;;9.90;99.90;;;;;;5059910;28;20490;-84
2022/10/20 00:26:31;;;;;;;7.53;5.40;;;9.90;99.90;;;;;;5059803;28;20462;-84
2022/10/20 00:28:58;;;;;;;6.47;5.50;;;9.90;99.90;;;;;;5058915;28;20458;-84
2022/10/20 00:31:26;;;;;;;7.87;5.20;;;9.90;99.90;;;;;;5059061;28;20531;-82
2022/10/20 00:33:53;;;;;;;7.77;5.20;;;9.90;99.90;;;;;;5059610;28;20465;-82
2022/10/20 00:36:22;;;;;;;5.53;5.00;;;9.90;99.90;;;;;;5059135;28;20476;-82
2022/10/20 00:38:49;;;;;;;8.43;6.00;;;9.90;99.90;;;;;;5058416;28;20461;-84
2022/10/20 00:41:18;;;;;;;11.30;5.77;;;9.90;99.90;;;;;;5058704;28;20997;-82
2022/10/20 00:43:47;;;;;;;8.03;5.67;;;9.80;99.90;;;;;;5058293;28;20502;-84
2022/10/20 00:46:16;;;;;;;11.20;6.30;;;9.80;99.90;;;;;;5057601;28;20470;-83
2022/10/20 00:48:47;;;;;;;6.87;5.37;;;9.90;99.90;;;;;;5057660;28;20463;-83
2022/10/20 00:51:19;;;;;;;7.77;4.90;;;9.80;99.90;;;;;;5058203;28;20461;-83
2022/10/20 00:53:48;;;;;;;9.00;6.87;;;9.80;99.90;;;;;;5058479;28;20458;-82
2022/10/20 00:56:15;;;;;;;8.03;6.00;;;9.80;99.90;;;;;;5058859;28;20493;-83
2022/10/20 00:58:42;;;;;;;8.70;6.90;;;9.80;99.90;;;;;;5057844;28;20462;-83
2022/10/20 01:01:11;;;;;;;11.57;5.70;;;9.80;99.90;;;;;;5058054;28;20449;-83
2022/10/20 01:03:44;;;;;;;7.17;4.97;;;9.80;99.90;;;;;;5058070;28;20459;-83
2022/10/20 01:06:14;;;;;;;9.93;5.80;;;9.80;99.90;;;;;;5058341;28;20541;-81
2022/10/20 01:08:41;;;;;;;6.17;5.20;;;9.80;99.90;;;;;;5058305;28;20455;-82
2022/10/20 01:11:18;;;;;;;9.33;5.63;;;9.90;99.90;;;;;;5058343;28;20858;-82
2022/10/20 01:14:00;;;;;;;10.00;5.97;;;9.90;99.90;;;;;;5058950;28;20471;-82
2022/10/20 01:16:44;;;;;;;7.87;5.37;;;9.90;99.90;;;;;;5058445;28;20505;-82
2022/10/20 01:19:37;;;;;;;11.87;5.80;;;9.90;99.90;;;;;;5058070;28;20458;-82
2022/10/20 01:22:19;;;;;;;8.23;6.10;;;9.80;99.90;;;;;;5013502;28;20448;-82
2022/10/20 01:24:55;;;;;;;6.97;5.63;;;9.90;99.90;;;;;;5057523;28;20508;-83
2022/10/20 01:27:31;;;;;;;9.40;5.50;;;9.90;99.90;;;;;;5057646;28;20455;-83
2022/10/20 01:30:08;;;;;;;7.90;5.50;;;9.80;99.90;;;;;;5057056;28;20472;-84
2022/10/20 01:32:45;;;;;;;8.63;5.30;;;9.80;99.90;;;;;;5057825;28;20454;-82
2022/10/20 01:35:17;;;;;;;7.93;6.07;;;9.80;99.90;;;;;;5057811;28;20463;-82
2022/10/20 01:37:49;;;;;;;8.03;6.50;;;9.80;99.90;;;;;;5057445;28;20455;-83
2022/10/20 01:40:21;;;;;;;9.23;6.20;;;9.70;99.90;;;;;;5054258;28;20450;-82
2022/10/20 01:42:52;;;;;;;7.40;4.90;;;9.70;99.90;;;;;;5058048;28;20467;-82
2022/10/20 01:45:22;;;;;;;8.37;5.27;;;9.60;99.90;;;;;;5056764;28;20501;-83
2022/10/20 01:47:51;;;;;;;9.17;6.23;;;9.50;99.90;;;;;;5057116;28;20467;-83
2022/10/20 01:50:19;;;;;;;8.23;6.03;;;9.50;99.90;;;;;;5057924;28;20461;-83
2022/10/20 01:52:46;;;;;;;5.90;5.27;;;9.40;99.90;;;;;;5057035;28;20971;-83
2022/10/20 01:55:14;;;;;;;6.47;5.43;;;9.40;99.90;;;;;;5056538;28;20473;-82
2022/10/20 01:57:56;;;;;;;6.97;5.80;;;9.40;99.90;;;;;;5057209;28;20455;-81
2022/10/20 02:00:24;;;;;;;9.17;4.70;;;9.40;99.90;;;;;;5057296;28;21040;-82
2022/10/20 02:03:21;;;;;;;7.93;6.07;;;9.40;99.90;;;;;;5057179;28;20999;-82
2022/10/20 02:06:00;;;;;;;7.40;5.90;;;9.40;99.90;;;;;;5055137;28;20481;-82
2022/10/20 02:08:34;;;;;;;7.30;5.63;;;9.40;99.90;;;;;;5056247;28;20484;-82
2022/10/20 02:11:03;;;;;;;8.67;5.57;;;9.40;99.90;;;;;;5056539;28;20461;-82
2022/10/20 02:13:35;;;;;;;6.63;5.93;;;9.40;99.90;;;;;;5057598;28;20835;-83
2022/10/20 02:16:09;;;;;;;8.13;6.20;;;9.40;99.90;;;;;;5056981;28;21056;-81
2022/10/20 02:18:41;;;;;;;7.63;6.10;;;9.40;99.90;;;;;;5057131;28;20978;-83
2022/10/20 02:21:09;;;;;;;6.20;5.37;;;9.30;99.90;;;;;;5057007;28;20855;-83
2022/10/20 02:23:39;;;;;;;7.00;5.47;;;9.30;99.90;;;;;;5067355;28;20520;-80
2022/10/20 02:26:07;;;;;;;7.43;4.83;;;9.30;99.90;;;;;;5069607;28;20509;-80
2022/10/20 02:28:37;;;;;;;6.43;5.80;;;9.30;99.90;;;;;;5063190;28;20461;-82
2022/10/20 02:31:04;;;;;;;8.30;6.00;;;9.30;99.90;;;;;;5055218;28;20836;-83
2022/10/20 02:33:32;;;;;;;6.33;5.17;;;9.20;99.90;;;;;;5055359;28;20462;-82
2022/10/20 02:35:59;;;;;;;21.73;6.73;;;9.20;99.90;;;;;;5054517;28;20472;-83
2022/10/20 02:38:26;;;;;;;6.47;5.40;;;9.10;99.90;;;;;;5055893;28;20457;-83
2022/10/20 02:40:53;;;;;;;8.37;6.03;;;9.20;99.90;;;;;;5055983;28;21144;-83
2022/10/20 02:43:20;;;;;;;7.67;5.00;;;9.20;99.90;;;;;;5055933;28;20462;-83
2022/10/20 02:45:48;;;;;;;7.27;6.10;;;9.20;99.90;;;;;;5054595;28;20882;-82
2022/10/20 02:48:14;;;;;;;14.33;6.17;;;9.10;99.90;;;;;;5055534;28;20454;-83
2022/10/20 02:50:41;;;;;;;6.00;5.00;;;9.10;99.90;;;;;;5056039;28;20462;-82
2022/10/20 02:53:08;;;;;;;7.87;5.53;;;9.10;99.90;;;;;;5055527;28;20465;-83
2022/10/20 02:55:35;;;;;;;7.13;6.30;;;9.20;99.90;;;;;;5055158;28;21002;-83
2022/10/20 02:58:02;;;;;;;8.73;6.40;;;9.10;99.90;;;;;;5055366;28;20462;-81
2022/10/20 03:00:30;;;;;;;8.80;6.20;;;9.20;99.90;;;;;;5056033;28;20457;-83
2022/10/20 03:02:58;;;;;;;7.40;6.20;;;9.20;99.90;;;;;;5056215;28;20452;-84
2022/10/20 03:05:25;;;;;;;9.60;6.97;;;9.20;99.90;;;;;;5056647;28;20489;-83
2022/10/20 03:07:52;;;;;;;9.33;6.10;;;9.20;99.90;;;;;;5054962;28;20487;-83
2022/10/20 03:10:19;;;;;;;7.83;6.37;;;9.20;99.90;;;;;;5055580;28;20456;-83
2022/10/20 03:12:46;;;;;;;8.80;6.17;;;9.20;99.90;;;;;;5055710;28;20803;-83
2022/10/20 03:15:13;;;;;;;7.83;5.53;;;9.20;99.90;;;;;;5054371;28;20468;-84
2022/10/20 03:17:39;;;;;;;7.13;5.57;;;9.20;99.90;;;;;;5052867;28;20469;-83
2022/10/20 03:20:09;;;;;;;7.20;6.50;;;9.20;99.90;;;;;;5055425;28;20437;-84
2022/10/20 03:22:36;;;;;;;7.73;6.60;;;9.20;99.90;;;;;;5055583;28;20463;-83
2022/10/20 03:25:03;;;;;;;7.53;5.80;;;9.10;99.90;;;;;;5054867;28;20489;-83
2022/10/20 03:27:29;;;;;;;7.20;5.73;;;9.10;99.90;;;;;;5054797;28;20949;-82
2022/10/20 03:29:56;;;;;;;12.50;6.10;;;9.10;99.90;;;;;;5054879;28;20451;-83
2022/10/20 03:32:23;;;;;;;10.17;6.07;;;9.10;99.90;;;;;;5055773;28;20465;-83
2022/10/20 03:34:50;;;;;;;7.00;6.10;;;9.10;99.90;;;;;;5055373;28;20470;-83
2022/10/20 03:37:18;;;;;;;7.47;6.23;;;9.10;99.90;;;;;;5055070;28;20465;-82
2022/10/20 03:39:44;;;;;;;7.43;5.63;;;9.10;99.90;;;;;;5054912;28;20464;-83
2022/10/20 03:42:11;;;;;;;10.97;5.80;;;9.10;99.90;;;;;;5056129;28;20457;-83
2022/10/20 03:44:38;;;;;;;9.73;5.83;;;9.10;99.90;;;;;;5057611;28;20486;-83
2022/10/20 03:47:05;;;;;;;8.63;6.40;;;9.10;99.90;;;;;;5058810;28;20487;-82
2022/10/20 03:49:32;;;;;;;10.20;7.40;;;9.10;99.90;;;;;;5054989;28;20456;-84
2022/10/20 03:51:59;;;;;;;7.90;6.97;;;9.10;99.90;;;;;;5058449;28;20461;-82
2022/10/20 03:54:27;;;;;;;7.27;6.27;;;9.10;99.90;;;;;;5057568;28;20489;-82
2022/10/20 03:56:54;;;;;;;9.50;6.70;;;9.00;99.90;;;;;;5058252;28;20457;-82
2022/10/20 03:59:21;;;;;;;8.53;6.37;;;9.00;99.90;;;;;;5057570;28;20475;-83
2022/10/20 04:01:49;;;;;;;9.50;6.90;;;9.00;99.90;;;;;;5057294;28;20463;-82
2022/10/20 04:04:16;;;;;;;8.50;6.80;;;9.00;99.90;;;;;;5057996;28;20449;-83
2022/10/20 04:06:42;;;;;;;10.70;7.30;;;9.00;99.90;;;;;;5057412;28;20492;-83
2022/10/20 04:09:09;;;;;;;11.00;7.70;;;9.00;99.90;;;;;;5057608;28;20454;-83
2022/10/20 04:14:10;;;;;;;7.70;6.40;;;9.00;99.90;;;;;;5095515;28;20472;-79
2022/10/20 04:16:37;;;;;;;7.80;6.20;;;9.10;99.90;;;;;;5099185;28;20444;-79
2022/10/20 04:19:03;;;;;;;8.00;6.30;;;9.10;99.90;;;;;;5099884;28;20447;-78
2022/10/20 04:21:30;;;;;;;10.23;5.73;;;9.10;99.90;;;;;;5099930;28;20458;-79
2022/10/20 04:23:57;;;;;;;8.97;6.00;;;9.10;99.90;;;;;;5094913;28;20472;-79
2022/10/20 04:26:24;;;;;;;10.13;6.00;;;9.10;99.90;;;;;;5095406;28;20920;-79
2022/10/20 04:28:51;;;;;;;7.80;5.93;;;9.20;99.90;;;;;;5099568;28;20451;-79
2022/10/20 04:31:19;;;;;;;9.90;6.53;;;9.20;99.90;;;;;;5101089;28;20500;-78
2022/10/20 04:33:45;;;;;;;10.63;7.43;;;9.20;99.90;;;;;;5100970;28;20493;-79
2022/10/20 04:36:14;;;;;;;9.77;7.17;;;9.20;99.90;;;;;;5099949;28;20458;-79
2022/10/20 04:38:40;;;;;;;7.10;5.60;;;9.20;99.90;;;;;;5100626;28;20468;-78
2022/10/20 04:41:07;;;;;;;10.23;6.10;;;9.20;99.90;;;;;;5101052;28;20455;-79
2022/10/20 04:43:34;;;;;;;9.90;7.00;;;9.20;99.90;;;;;;5100062;28;20463;-79
2022/10/20 04:46:02;;;;;;;9.07;6.17;;;9.30;99.90;;;;;;5099842;28;20496;-79
2022/10/20 04:48:30;;;;;;;10.53;7.87;;;9.20;99.90;;;;;;5098090;28;20529;-78
2022/10/20 04:51:02;;;;;;;9.83;6.70;;;9.20;99.90;;;;;;5080440;28;20453;-78
2022/10/20 04:53:29;;;;;;;9.93;7.23;;;9.30;99.90;;;;;;5079839;28;20480;-78
2022/10/20 04:55:56;;;;;;;7.97;6.00;;;9.30;99.90;;;;;;5092094;28;20449;-78
2022/10/20 04:58:23;;;;;;;9.60;6.40;;;9.30;99.90;;;;;;5100286;28;20454;-79
2022/10/20 05:00:50;;;;;;;14.20;6.80;;;9.30;99.90;;;;;;5101728;28;20982;-79
2022/10/20 05:03:17;;;;;;;8.60;6.80;;;9.30;99.90;;;;;;5102239;28;20466;-79
2022/10/20 05:05:46;;;;;;;8.70;6.17;;;9.40;99.90;;;;;;5102098;28;20476;-80
2022/10/20 05:08:12;;;;;;;12.87;7.87;;;9.40;99.90;;;;;;5102270;28;20540;-80
2022/10/20 05:10:39;;;;;;;8.67;6.53;;;9.40;99.90;;;;;;5102498;28;20452;-80
2022/10/20 05:13:06;;;;;;;10.43;6.43;;;9.30;99.90;;;;;;5116691;28;20527;-79
2022/10/20 05:15:33;;;;;;;9.20;5.97;;;9.30;99.90;;;;;;5117732;28;20512;-79
2022/10/20 05:18:00;;;;;;;8.27;6.23;;;9.30;99.90;;;;;;5110995;28;20482;-79
2022/10/20 05:20:26;;;;;;;8.13;7.00;;;9.30;99.90;;;;;;5100455;28;20548;-80
2022/10/20 05:22:55;;;;;;;10.53;6.70;;;9.30;99.90;;;;;;5100917;28;20475;-79
2022/10/20 05:25:22;;;;;;;9.07;7.03;;;9.30;99.90;;;;;;5100590;28;20962;-79
2022/10/20 05:27:49;;;;;;;12.23;7.83;;;9.30;99.90;;;;;;5101100;28;20534;-78
2022/10/20 05:30:16;;;;;;;8.90;6.97;;;9.30;99.90;;;;;;5101658;28;21013;-79
2022/10/20 05:32:42;;;;;;;9.80;7.63;;;9.30;99.90;;;;;;5094905;28;20494;-79
2022/10/20 05:35:09;;;;;;;10.57;7.10;;;9.30;99.90;;;;;;5102686;28;20450;-81
2022/10/20 05:37:36;;;;;;;7.33;6.03;;;9.30;99.90;;;;;;5108166;28;20490;-79
2022/10/20 05:40:06;;;;;;;10.60;7.60;;;9.40;99.90;;;;;;5115613;28;20575;-79
2022/10/20 05:42:33;;;;;;;12.20;6.77;;;9.40;99.90;;;;;;5099689;28;20477;-79
2022/10/20 05:44:59;;;;;;;8.40;6.53;;;9.40;99.90;;;;;;5099180;28;20954;-79
2022/10/20 05:47:26;;;;;;;8.07;6.50;;;9.50;99.90;;;;;;5100646;28;20483;-79
2022/10/20 05:49:53;;;;;;;10.90;7.03;;;9.50;99.90;;;;;;5100066;28;20450;-80
2022/10/20 05:52:20;;;;;;;9.93;7.63;;;9.50;99.90;;;;;;5097874;28;20480;-80
2022/10/20 05:54:46;;;;;;;10.33;6.27;;;9.40;99.90;;;;;;5098639;28;20545;-79
2022/10/20 05:57:15;;;;;;;8.40;6.13;;;9.40;99.90;;;;;;5096487;28;20549;-79
2022/10/20 05:59:41;;;;;;;8.30;6.67;;;9.50;99.90;;;;;;5095785;28;20442;-79
2022/10/20 06:02:09;;;;;;;9.70;6.40;;;9.50;99.90;;;;;;5096799;28;20564;-79
2022/10/20 06:04:36;;;;;;;12.90;6.80;;;9.50;99.90;;;;;;5096836;28;20456;-79
2022/10/20 06:07:04;;;;;;;10.43;7.20;;;9.50;99.90;;;;;;5096635;28;20854;-79
2022/10/20 06:09:31;;;;;;;9.30;6.90;;;9.50;99.90;;;;;;5096633;28;21075;-79
2022/10/20 06:11:59;;;;;;;10.67;7.90;;;9.50;99.90;;;;;;5094565;28;20460;-79
2022/10/20 06:14:27;;;;;;;8.97;7.13;;;9.50;99.90;;;;;;5092252;28;20948;-79
2022/10/20 06:16:55;;;;;;;9.00;7.30;;;9.50;99.90;;;;;;5095357;28;20442;-79
2022/10/20 06:19:23;;;;;;;8.10;7.27;;;9.50;99.90;;;;;;5095765;28;20441;-79
2022/10/20 06:21:50;;;;;;;10.50;7.60;;;9.50;99.90;;;;;;5095814;28;20446;-79
2022/10/20 06:24:18;;;;;;;12.10;7.33;;;9.50;99.90;;;;;;5095998;28;20450;-77
2022/10/20 06:26:45;;;;;;;7.63;6.43;;;9.60;99.90;;;;;;5092105;28;20486;-78
2022/10/20 06:29:15;;;;;;;10.57;8.37;;;9.60;99.90;;;;;;5095110;28;20447;-78
2022/10/20 06:31:44;;;;;;;10.83;8.30;;;9.60;99.90;;;;;;5095623;28;20461;-78
2022/10/20 06:34:14;;;;;;;10.23;8.13;;;9.60;99.90;;;;;;5095655;28;20449;-78
2022/10/20 06:36:42;;;;;;;9.60;7.50;;;9.60;99.90;;;;;;5095695;28;20446;-77
2022/10/20 06:39:13;;;;;;;9.17;7.30;;;9.60;99.90;;;;;;5094763;28;20521;-77
2022/10/20 06:41:40;;;;;;;8.83;7.23;;;9.70;99.90;;;;;;5095426;28;20460;-78
2022/10/20 06:44:07;;;;;;;11.20;8.43;;;9.70;99.90;;;;;;5095888;28;20568;-79
2022/10/20 06:46:35;;;;;;;9.13;7.83;;;9.80;99.90;;;;;;5094966;28;20481;-79
2022/10/20 06:49:06;;;;;;;9.70;8.03;;;9.70;99.90;;;;;;5095651;28;20522;-78
2022/10/20 06:51:35;;;;;;;15.03;8.53;;;9.80;99.90;;;;;;5095552;28;20467;-78
2022/10/20 06:54:02;;;;;;;12.97;7.63;;;9.80;99.90;;;;;;5096034;28;20476;-79
2022/10/20 06:56:30;;;;;;;12.07;7.00;;;9.90;99.90;;;;;;5095715;28;20884;-78
2022/10/20 06:58:58;;;;;;;11.23;6.97;;;10.00;99.90;;;;;;5095414;28;20980;-79
2022/10/20 07:01:27;;;;;;;12.73;7.83;;;10.00;99.90;;;;;;5096116;28;20472;-79
2022/10/20 07:03:55;;;;;;;8.90;7.30;;;10.00;99.90;;;;;;5096583;28;20471;-79
2022/10/20 07:06:27;;;;;;;10.40;7.70;;;10.10;99.90;;;;;;5096660;28;20485;-79
2022/10/20 07:08:56;;;;;;;9.10;7.17;;;10.10;99.90;;;;;;5095349;28;20456;-78
2022/10/20 07:11:25;;;;;;;10.23;7.07;;;10.20;99.90;;;;;;5095848;28;20453;-79
2022/10/20 07:13:52;;;;;;;11.27;8.80;;;10.20;99.90;;;;;;5085448;28;20850;-78
2022/10/20 07:16:21;;;;;;;7.53;6.63;;;10.30;99.90;;;;;;5096066;28;20448;-79
2022/10/20 07:18:48;;;;;;;10.70;7.83;;;10.30;99.90;;;;;;5099572;28;20458;-79
2022/10/20 07:21:16;;;;;;;9.90;7.90;;;10.40;99.90;;;;;;5099636;28;20463;-79
2022/10/20 07:23:45;;;;;;;8.37;6.80;;;10.40;99.90;;;;;;5099829;28;20563;-79
2022/10/20 07:26:14;;;;;;;11.00;8.50;;;10.50;99.90;;;;;;5100234;28;20861;-79
2022/10/20 07:28:42;;;;;;;13.13;7.80;;;10.50;99.90;;;;;;5100099;28;20549;-79
2022/10/20 07:31:11;;;;;;;10.63;8.10;;;10.60;99.90;;;;;;5100579;28;20461;-79
2022/10/20 07:33:38;;;;;;;11.97;7.97;;;10.60;99.90;;;;;;5101029;28;20473;-79
2022/10/20 07:36:12;;;;;;;11.80;8.27;;;10.70;99.90;;;;;;5101429;28;20446;-78
2022/10/20 07:38:38;;;;;;;10.43;7.60;;;10.80;99.90;;;;;;5101332;28;20453;-79
2022/10/20 07:41:07;;;;;;;12.63;7.67;;;10.80;99.90;;;;;;5101652;28;20450;-78
2022/10/20 07:43:34;;;;;;;8.90;7.47;;;10.90;99.90;;;;;;5093629;28;20474;-78
2022/10/20 07:46:01;;;;;;;9.83;7.00;;;11.00;99.90;;;;;;5113028;28;20445;-78
2022/10/20 07:48:29;;;;;;;10.87;7.30;;;11.00;99.90;;;;;;5098896;28;20450;-78
2022/10/20 07:51:13;;;;;;;10.33;8.00;;;11.10;99.90;;;;;;5097166;28;20457;-78
2022/10/20 07:53:40;;;;;;;11.33;7.73;;;11.20;99.90;;;;;;5097710;28;20466;-77
2022/10/20 07:56:08;;;;;;;10.30;6.93;;;11.20;99.90;;;;;;5098401;28;20449;-78
2022/10/20 07:58:35;;;;;;;9.33;7.07;;;11.30;99.90;;;;;;5098186;28;20456;-77
2022/10/20 08:01:02;;;;;;;9.03;7.23;;;11.40;99.90;;;;;;5098428;28;20452;-78
2022/10/20 08:03:29;;;;;;;9.17;7.40;;;11.50;99.90;;;;;;5098274;28;20982;-78
2022/10/20 08:05:55;;;;;;;12.00;7.90;;;11.60;99.90;;;;;;5098304;28;20446;-78
2022/10/20 08:08:22;;;;;;;8.00;6.90;;;11.60;99.90;;;;;;5097795;28;20871;-77
2022/10/20 08:10:49;;;;;;;10.37;7.33;;;11.70;99.90;;;;;;5098455;28;20442;-78
2022/10/20 08:13:24;;;;;;;10.00;7.07;;;11.90;99.90;;;;;;5098641;28;20480;-77
2022/10/20 08:15:51;;;;;;;10.40;6.90;;;12.00;99.90;;;;;;5091534;28;20966;-79
2022/10/20 08:18:17;;;;;;;8.37;7.57;;;12.20;99.90;;;;;;5097354;28;20439;-78
2022/10/20 08:20:44;;;;;;;11.90;8.60;;;12.30;99.90;;;;;;5099981;28;20466;-79
2022/10/20 08:23:11;;;;;;;8.97;7.47;;;12.40;99.90;;;;;;5099374;28;20543;-79
2022/10/20 08:25:38;;;;;;;7.07;5.93;;;12.50;99.90;;;;;;5099394;28;20456;-79
2022/10/20 08:28:05;;;;;;;11.47;7.30;;;12.60;99.90;;;;;;5099360;28;20487;-79
2022/10/20 08:30:34;;;;;;;9.60;7.30;;;12.80;99.90;;;;;;5099298;28;20548;-79
2022/10/20 08:33:01;;;;;;;20.67;7.87;;;12.90;99.90;;;;;;5099330;28;20467;-78
2022/10/20 08:35:28;;;;;;;9.73;6.50;;;12.90;99.90;;;;;;5100859;28;20472;-79
2022/10/20 08:37:55;;;;;;;8.30;6.50;;;13.10;99.90;;;;;;5100136;28;20467;-78
2022/10/20 08:40:26;;;;;;;9.87;6.83;;;13.20;99.90;;;;;;5099679;28;20448;-79
2022/10/20 08:42:53;;;;;;;16.03;8.00;;;13.40;99.90;;;;;;5098891;28;20472;-79
2022/10/20 08:45:22;;;;;;;10.90;6.63;;;13.50;99.90;;;;;;5098529;28;20960;-79
2022/10/20 08:47:53;;;;;;;9.80;7.77;;;13.60;99.90;;;;;;5098393;28;21215;-78
2022/10/20 08:50:21;;;;;;;13.47;6.90;;;13.80;99.90;;;;;;5098991;28;20520;-79
2022/10/20 08:52:53;;;;;;;8.23;7.00;;;13.90;99.90;;;;;;5097512;28;20470;-79
2022/10/20 08:55:26;;;;;;;10.30;5.93;;;14.00;99.90;;;;;;5099126;28;20488;-79
2022/10/20 08:57:56;;;;;;;7.00;5.60;;;14.20;99.90;;;;;;5100331;28;20457;-79
2022/10/20 09:00:24;;;;;;;7.73;6.33;;;14.30;99.90;;;;;;5100075;28;20451;-79
2022/10/20 09:02:53;;;;;;;9.87;5.83;;;14.40;99.90;;;;;;5099739;28;20463;-79
2022/10/20 09:05:24;;;;;;;7.90;5.57;;;14.50;99.90;;;;;;5098650;28;20948;-79
2022/10/20 09:07:52;;;;;;;10.97;7.60;;;14.60;99.90;;;;;;5110602;28;20494;-78
2022/10/20 09:10:29;;;;;;;9.10;7.20;;;14.60;99.90;;;;;;5113643;28;20549;-78
2022/10/20 09:12:56;;;;;;;8.43;5.70;;;14.80;99.90;;;;;;5114230;28;20511;-79
2022/10/20 09:15:25;;;;;;;6.70;5.70;;;14.90;99.90;;;;;;5113325;28;20489;-79
2022/10/20 09:17:55;;;;;;;7.77;5.60;;;14.90;99.90;;;;;;5112461;28;20449;-78
2022/10/20 09:20:25;;;;;;;6.53;5.50;;;15.00;99.90;;;;;;5099826;28;20452;-79
2022/10/20 09:22:52;;;;;;;7.20;5.90;;;15.10;99.90;;;;;;5098122;28;20471;-80
2022/10/20 09:25:22;;;;;;;7.53;5.83;;;15.10;99.90;;;;;;5098158;28;20458;-79
2022/10/20 09:27:50;;;;;;;7.20;5.73;;;15.10;99.90;;;;;;5097390;28;20487;-78
2022/10/20 09:30:18;;;;;;;7.10;6.00;;;15.10;99.90;;;;;;5097639;28;20444;-79
2022/10/20 09:32:46;;;;;;;8.27;5.77;;;15.10;99.90;;;;;;5097040;28;21005;-80
2022/10/20 09:35:20;;;;;;;9.90;6.20;;;15.10;99.90;;;;;;5097796;28;20454;-80
2022/10/20 09:37:53;;;;;;;8.23;5.57;;;15.10;99.90;;;;;;5097559;28;20525;-79
2022/10/20 09:40:20;;;;;;;7.97;5.53;;;15.20;99.90;;;;;;5098068;28;20534;-80
2022/10/20 09:42:52;;;;;;;9.73;6.33;;;15.30;99.90;;;;;;5098195;28;20468;-79
2022/10/20 09:45:22;;;;;;;10.27;6.30;;;15.20;99.90;;;;;;5098064;28;20434;-80
2022/10/20 09:47:53;;;;;;;7.33;5.70;;;15.30;99.90;;;;;;5088050;28;21016;-79
2022/10/20 09:50:26;;;;;;;10.70;5.77;;;15.40;99.90;;;;;;5098754;28;20450;-79
2022/10/20 09:52:53;;;;;;;7.37;5.63;;;15.40;99.90;;;;;;5097499;28;20468;-79
2022/10/20 09:55:28;;;;;;;8.90;5.90;;;15.40;99.90;;;;;;5097019;28;20454;-79
2022/10/20 09:57:56;;;;;;;8.93;6.10;;;15.40;99.90;;;;;;5096294;28;20451;-79
2022/10/20 10:00:25;;;;;;;9.40;4.77;;;15.40;99.90;;;;;;5097415;28;20444;-80
2022/10/20 10:03:08;;;;;;;6.80;5.07;;;15.40;99.90;;;;;;5097028;28;20480;-80
2022/10/20 10:05:37;;;;;;;8.20;6.20;;;15.50;99.90;;;;;;5097533;28;20483;-79
2022/10/20 10:08:04;;;;;;;8.13;5.90;;;15.50;99.90;;;;;;5097100;28;20489;-80
2022/10/20 10:10:32;;;;;;;7.63;5.53;;;15.50;99.90;;;;;;5078914;28;20454;-78
2022/10/20 10:13:01;;;;;;;9.10;5.33;;;15.60;99.90;;;;;;5093191;28;20474;-79
2022/10/20 10:15:31;;;;;;;7.17;5.10;;;15.60;99.90;;;;;;5093294;28;20954;-78
2022/10/20 10:17:59;;;;;;;6.23;5.10;;;15.60;99.90;;;;;;5097435;22;20594;-85
2022/10/20 10:20:32;;;;;;;8.10;6.03;;;15.60;99.90;;;;;;5058406;28;20524;-84
2022/10/20 10:23:19;;;;;;;8.53;5.50;;;15.60;99.90;;;;;;5059346;28;20459;-83
2022/10/20 10:25:47;;;;;;;10.17;5.60;;;15.50;99.90;;;;;;5059041;28;20424;-83
2022/10/20 10:28:30;;;;;;;5.83;4.83;;;15.50;99.90;;;;;;5058238;28;20491;-85
2022/10/20 10:31:08;;;;;;;10.27;6.13;;;15.40;99.90;;;;;;5058799;28;20430;-84
2022/10/20 10:33:35;;;;;;;6.83;5.40;;;15.40;99.90;;;;;;5058211;28;20441;-84
2022/10/20 10:36:06;;;;;;;12.30;5.67;;;15.40;99.90;;;;;;5058704;28;20450;-85
2022/10/20 10:38:35;;;;;;;11.53;6.33;;;15.30;99.90;;;;;;5067657;28;20471;-85
2022/10/20 10:41:12;;;;;;;7.07;6.10;;;15.30;99.90;;;;;;5079108;28;20457;-84
2022/10/20 10:43:50;;;;;;;8.03;5.43;;;15.20;99.90;;;;;;5048838;28;20466;-84
2022/10/20 10:46:20;;;;;;;8.00;6.20;;;15.20;99.90;;;;;;5056879;28;20460;-84
2022/10/20 10:49:09;;;;;;;7.60;4.80;;;15.30;99.90;;;;;;5050365;28;20479;-83
2022/10/20 10:51:46;;;;;;;8.63;5.73;;;15.30;99.90;;;;;;5056089;28;20465;-85
2022/10/20 10:54:39;;;;;;;8.90;6.23;;;15.40;99.90;;;;;;5059507;28;20462;-85
2022/10/20 10:57:15;;;;;;;7.30;5.17;;;15.50;99.90;;;;;;5059969;28;20478;-83
2022/10/20 10:59:44;;;;;;;10.00;5.87;;;15.60;99.90;;;;;;5060477;28;20480;-83
2022/10/20 11:02:38;;;;;;;7.63;5.50;;;15.70;99.90;;;;;;5060321;28;20453;-85
2022/10/20 11:05:24;;;;;;;7.93;4.60;;;15.70;99.90;;;;;;5047127;28;20544;-84
2022/10/20 11:08:01;;;;;;;9.50;5.70;;;15.80;99.90;;;;;;5060761;28;20504;-84
2022/10/20 11:10:38;;;;;;;6.70;6.00;;;15.80;99.90;;;;;;5060642;28;20459;-85
2022/10/20 11:13:29;;;;;;;9.37;5.40;;;15.80;99.90;;;;;;5060287;28;20443;-85
2022/10/20 11:16:08;;;;;;;8.80;6.27;;;15.80;99.90;;;;;;5056093;28;20456;-84
2022/10/20 11:19:06;;;;;;;9.27;6.30;;;15.80;99.90;;;;;;5059710;28;20483;-83
2022/10/20 11:21:37;;;;;;;7.17;5.30;;;15.80;99.90;;;;;;5026693;28;20846;-83
2022/10/20 11:24:31;;;;;;;6.73;4.80;;;15.80;99.90;;;;;;5059618;28;20888;-83
2022/10/20 11:27:06;;;;;;;8.17;5.67;;;15.80;99.90;;;;;;5059356;28;20453;-84
2022/10/20 11:29:41;;;;;;;10.43;6.37;;;15.80;99.90;;;;;;5059558;28;20548;-85
2022/10/20 11:32:20;;;;;;;15.43;6.43;;;15.70;99.90;;;;;;5057755;28;20483;-84
2022/10/20 11:34:56;;;;;;;12.90;5.90;;;15.70;99.90;;;;;;5058264;28;20969;-84
2022/10/20 11:37:26;;;;;;;10.90;7.87;;;15.70;99.90;;;;;;5059042;28;20482;-86
2022/10/20 11:40:00;;;;;;;7.43;6.03;;;15.60;99.90;;;;;;5059613;28;20474;-84
2022/10/20 11:42:37;;;;;;;8.30;7.07;;;15.40;99.90;;;;;;5058966;28;20458;-87
2022/10/20 11:45:22;;;;;;;9.10;6.57;;;15.40;99.90;;;;;;5058532;28;20465;-84
2022/10/20 11:47:51;;;;;;;9.60;7.10;;;15.50;99.90;;;;;;5059335;28;20501;-85
2022/10/20 11:50:18;;;;;;;10.63;7.43;;;15.40;99.90;;;;;;5058819;28;20457;-83
2022/10/20 11:53:04;;;;;;;10.97;5.93;;;15.50;99.90;;;;;;5058940;28;20464;-85
2022/10/20 11:55:51;;;;;;;12.63;7.33;;;15.50;99.90;;;;;;5057809;28;20451;-86
2022/10/20 11:58:54;;;;;;;13.83;6.97;;;15.50;99.90;;;;;;5058346;28;20469;-84
2022/10/20 12:01:29;;;;;;;11.47;7.40;;;15.50;99.90;;;;;;5057678;28;20942;-83
2022/10/20 12:04:23;;;;;;;12.23;7.90;;;15.50;99.90;;;;;;5057984;28;20860;-87
2022/10/20 12:07:31;;;;;;;13.20;6.67;;;15.50;99.90;;;;;;5058602;28;20449;-84
2022/10/20 12:10:13;;;;;;;10.57;7.20;;;15.40;99.90;;;;;;5024066;28;21096;-84
2022/10/20 12:12:47;;;;;;;9.20;7.70;;;15.30;99.90;;;;;;5061162;28;20424;-84
2022/10/20 12:15:33;;;;;;;9.93;7.40;;;15.30;99.90;;;;;;5060261;28;20482;-84
2022/10/20 12:18:04;;;;;;;11.93;6.10;;;15.40;99.90;;;;;;5060258;28;20483;-85
2022/10/20 12:21:01;;;;;;;12.33;7.03;;;15.40;99.90;;;;;;5060569;28;20458;-84
2022/10/20 12:24:02;;;;;;;10.80;7.67;;;15.40;99.90;;;;;;5060539;28;20452;-85
2022/10/20 12:27:05;;;;;;;7.23;6.53;;;15.30;99.90;;;;;;5060668;28;20432;-85
2022/10/20 12:29:55;;;;;;;8.00;7.03;;;15.30;99.90;;;;;;5059325;28;20492;-83
2022/10/20 12:32:56;;;;;;;12.63;7.37;;;15.30;99.90;;;;;;5059716;28;20459;-84
2022/10/20 12:35:50;;;;;;;8.90;7.13;;;15.20;99.90;;;;;;5060138;28;20434;-84
2022/10/20 12:38:22;;;;;;;10.20;7.63;;;15.20;99.90;;;;;;5057616;28;20503;-84
2022/10/20 12:40:54;;;;;;;10.17;7.87;;;15.20;99.90;;;;;;5060988;28;20448;-85
2022/10/20 12:43:37;;;;;;;11.20;8.50;;;15.20;99.90;;;;;;5077934;28;20485;-84
2022/10/20 12:46:08;;;;;;;11.43;8.10;;;15.10;99.90;;;;;;5081838;28;20919;-85
2022/10/20 12:48:43;;;;;;;11.07;8.20;;;15.20;99.90;;;;;;5080428;28;20497;-86
2022/10/20 12:51:21;;;;;;;13.13;10.33;;;15.10;99.90;;;;;;5079707;28;20440;-84
2022/10/20 12:53:56;;;;;;;14.13;10.00;;;15.10;99.90;;;;;;5079171;28;20467;-85
2022/10/20 12:56:25;;;;;;;10.03;8.47;;;15.00;99.90;;;;;;5059989;28;20461;-84
2022/10/20 12:59:22;;;;;;;12.20;8.73;;;15.00;99.90;;;;;;5057818;28;20904;-85
2022/10/20 13:02:29;;;;;;;13.27;9.50;;;15.00;99.90;;;;;;5048291;28;20482;-86
2022/10/20 13:05:03;;;;;;;12.90;8.73;;;15.00;99.90;;;;;;5054624;28;20456;-84
2022/10/20 13:08:07;;;;;;;10.07;7.97;;;15.00;99.90;;;;;;5058010;28;20456;-85
2022/10/20 13:10:36;;;;;;;10.13;8.10;;;15.10;99.90;;;;;;5057301;28;20449;-85
2022/10/20 13:13:40;;;;;;;11.53;9.17;;;15.10;99.90;;;;;;5058120;28;20473;-86